createdAt,value
2022-12-11T00:01:14.939Z,42.33
2022-12-11T00:03:41.798Z,41.80
2022-12-11T00:06:09.682Z,42.37
2022-12-11T00:08:36.513Z,41.67
2022-12-11T00:11:03.432Z,41.13
2022-12-11T00:13:30.078Z,43.23
2022-12-11T00:15:58.402Z,42.57
2022-12-11T00:18:24.955Z,44.33
2022-12-11T00:20:51.532Z,42.07
2022-12-11T00:23:18.113Z,41.63
2022-12-11T00:25:45.174Z,39.13
2022-12-11T00:28:12.499Z,39.87
2022-12-11T00:30:40.252Z,42.37
2022-12-11T00:33:06.777Z,42.43
2022-12-11T00:35:33.244Z,42.93
2022-12-11T00:37:59.793Z,42.93
2022-12-11T00:40:26.372Z,39.83
2022-12-11T00:42:52.949Z,41.43
2022-12-11T00:45:19.478Z,42.63
2022-12-11T00:47:46.882Z,37.97
2022-12-11T00:50:13.405Z,40.90
2022-12-11T00:52:40.900Z,38.87
2022-12-11T00:57:52.020Z,40.90
2022-12-11T01:00:18.623Z,45.17
2022-12-11T01:02:45.320Z,45.20
2022-12-11T01:05:12.162Z,39.67
2022-12-11T01:10:26.753Z,42.83
2022-12-11T01:15:42.101Z,50.57
2022-12-11T01:18:09.290Z,46.80
2022-12-11T01:20:36.312Z,45.93
2022-12-11T01:23:02.809Z,56.53
2022-12-11T01:25:29.407Z,46.03
2022-12-11T01:27:55.929Z,47.50
2022-12-11T01:30:23.061Z,46.47
2022-12-11T01:32:49.645Z,44.50
2022-12-11T01:35:16.385Z,45.77
2022-12-11T01:37:43.663Z,43.30
2022-12-11T01:40:11.455Z,45.10
2022-12-11T01:42:38.748Z,42.53
2022-12-11T01:45:26.858Z,42.87
2022-12-11T01:47:58.418Z,43.03
2022-12-11T01:50:24.998Z,41.67
2022-12-11T01:52:52.489Z,44.00
2022-12-11T01:55:19.169Z,43.60
2022-12-11T01:57:45.778Z,42.97
2022-12-11T02:00:13.060Z,43.30
2022-12-11T02:02:39.960Z,44.47
2022-12-11T02:05:06.683Z,43.20
2022-12-11T02:07:37.118Z,42.30
2022-12-11T02:10:03.997Z,42.03
2022-12-11T02:15:46.968Z,42.13
2022-12-11T02:18:15.245Z,42.37
2022-12-11T02:20:42.716Z,41.13
2022-12-11T02:23:15.478Z,41.83
2022-12-11T02:26:00.434Z,40.47
2022-12-11T02:28:33.224Z,42.77
2022-12-11T02:31:01.951Z,41.90
2022-12-11T02:33:42.414Z,41.90
2022-12-11T02:36:09.010Z,38.30
2022-12-11T02:38:36.297Z,38.37
2022-12-11T02:41:03.059Z,37.37
2022-12-11T02:43:29.714Z,37.30
2022-12-11T02:45:56.256Z,35.60
2022-12-11T02:48:22.897Z,34.37
2022-12-11T02:50:50.316Z,30.70
2022-12-11T02:53:17.624Z,25.50
2022-12-11T02:55:44.323Z,25.67
2022-12-11T02:58:13.905Z,25.90
2022-12-11T03:00:40.467Z,32.57
2022-12-11T03:03:06.986Z,31.97
2022-12-11T03:05:33.590Z,32.00
2022-12-11T03:08:00.133Z,32.90
2022-12-11T03:10:26.753Z,32.47
2022-12-11T03:12:54.203Z,30.00
2022-12-11T03:15:21.648Z,31.63
2022-12-11T03:18:15.234Z,32.83
2022-12-11T03:20:51.277Z,31.37
2022-12-11T03:23:24.035Z,33.53
2022-12-11T03:25:53.448Z,38.33
2022-12-11T03:28:21.141Z,39.33
2022-12-11T03:30:48.208Z,38.67
2022-12-11T03:33:22.200Z,37.47
2022-12-11T03:35:49.593Z,36.20
2022-12-11T03:38:16.798Z,33.57
2022-12-11T03:40:43.378Z,32.43
2022-12-11T03:43:09.978Z,32.00
2022-12-11T03:45:36.557Z,33.40
2022-12-11T03:48:03.057Z,32.13
2022-12-11T03:50:30.438Z,31.20
2022-12-11T03:52:56.917Z,29.30
2022-12-11T03:55:23.448Z,29.60
2022-12-11T03:57:50.021Z,32.70
2022-12-11T04:00:17.756Z,31.57
2022-12-11T04:02:44.330Z,30.13
2022-12-11T04:05:11.511Z,31.90
2022-12-11T04:07:38.591Z,31.03
2022-12-11T04:10:05.786Z,29.20
2022-12-11T04:12:32.536Z,29.93
2022-12-11T04:15:02.059Z,30.80
2022-12-11T04:17:48.023Z,30.80
2022-12-11T04:20:33.138Z,29.77
2022-12-11T04:23:18.471Z,28.77
2022-12-11T04:25:45.081Z,27.33
2022-12-11T04:28:11.624Z,27.97
2022-12-11T04:30:38.211Z,26.27
2022-12-11T04:33:04.700Z,26.37
2022-12-11T04:35:31.399Z,26.80
2022-12-11T04:37:59.150Z,26.83
2022-12-11T04:40:25.981Z,25.23
2022-12-11T04:42:52.527Z,24.97
2022-12-11T04:48:03.154Z,26.97
2022-12-11T04:50:29.720Z,30.07
2022-12-11T04:52:56.486Z,29.50
2022-12-11T04:55:23.109Z,29.57
2022-12-11T04:57:49.828Z,26.50
2022-12-11T05:00:17.322Z,26.83
2022-12-11T05:02:43.968Z,27.50
2022-12-11T05:05:10.953Z,26.43
2022-12-11T05:07:38.583Z,26.53
2022-12-11T05:10:05.510Z,25.87
2022-12-11T05:12:32.484Z,27.10
2022-12-11T05:14:59.133Z,26.87
2022-12-11T05:17:25.909Z,27.73
2022-12-11T05:19:52.475Z,26.57
2022-12-11T05:22:19.007Z,27.33
2022-12-11T05:24:45.662Z,26.40
2022-12-11T05:27:12.282Z,25.97
2022-12-11T05:29:38.796Z,25.27
2022-12-11T05:32:05.376Z,24.07
2022-12-11T05:34:31.856Z,21.77
2022-12-11T05:36:59.120Z,20.10
2022-12-11T05:39:25.711Z,19.87
2022-12-11T05:41:52.973Z,17.23
2022-12-11T05:44:19.780Z,19.77
2022-12-11T05:46:46.870Z,21.63
2022-12-11T05:49:13.468Z,22.20
2022-12-11T05:51:41.516Z,19.27
2022-12-11T05:54:09.093Z,19.30
2022-12-11T05:56:36.038Z,17.17
2022-12-11T05:59:03.489Z,15.70
2022-12-11T06:01:31.227Z,17.03
2022-12-11T06:03:58.012Z,17.50
2022-12-11T06:06:24.959Z,16.63
2022-12-11T06:08:52.489Z,14.90
2022-12-11T06:11:23.767Z,13.93
2022-12-11T06:13:51.057Z,12.27
2022-12-11T06:16:17.653Z,7.37
2022-12-11T06:18:44.626Z,7.23
2022-12-11T06:21:12.514Z,6.97
2022-12-11T06:23:39.156Z,6.17
2022-12-11T06:26:05.716Z,5.80
2022-12-11T06:28:32.358Z,6.13
2022-12-11T06:30:59.377Z,7.30
2022-12-11T06:33:26.089Z,7.30
2022-12-11T06:35:52.662Z,5.37
2022-12-11T06:38:19.671Z,4.60
2022-12-11T06:40:46.864Z,4.87
2022-12-11T06:43:13.771Z,4.10
2022-12-11T06:45:40.327Z,3.93
2022-12-11T06:48:06.925Z,4.17
2022-12-11T06:50:33.585Z,4.20
2022-12-11T06:53:00.291Z,3.53
2022-12-11T06:55:27.155Z,4.30
2022-12-11T06:57:54.087Z,4.23
2022-12-11T07:00:21.065Z,4.73
2022-12-11T07:02:48.225Z,4.80
2022-12-11T07:05:15.133Z,5.10
2022-12-11T07:07:41.801Z,4.63
2022-12-11T07:10:08.892Z,5.03
2022-12-11T07:12:35.845Z,4.27
2022-12-11T07:15:02.552Z,4.77
2022-12-11T07:17:29.616Z,4.83
2022-12-11T07:19:56.410Z,4.87
2022-12-11T07:22:23.253Z,4.47
2022-12-11T07:24:49.840Z,4.50
2022-12-11T07:27:16.527Z,4.87
2022-12-11T07:29:43.227Z,4.53
2022-12-11T07:32:10.231Z,4.30
2022-12-11T07:34:37.259Z,4.67
2022-12-11T07:37:04.067Z,5.10
2022-12-11T07:39:31.721Z,4.10
2022-12-11T07:41:58.300Z,4.60
2022-12-11T07:44:25.040Z,4.80
2022-12-11T07:46:51.987Z,4.90
2022-12-11T07:49:18.587Z,4.60
2022-12-11T07:51:45.220Z,3.97
2022-12-11T07:54:15.043Z,3.50
2022-12-11T07:56:43.904Z,4.20
2022-12-11T07:59:11.182Z,6.07
2022-12-11T08:01:38.693Z,4.30
2022-12-11T08:04:06.060Z,3.70
2022-12-11T08:06:34.549Z,3.50
2022-12-11T08:09:01.838Z,3.90
2022-12-11T08:11:28.598Z,3.30
2022-12-11T08:13:55.205Z,3.67
2022-12-11T08:16:21.841Z,3.77
2022-12-11T08:18:48.560Z,3.20
2022-12-11T08:21:15.216Z,3.20
2022-12-11T08:23:41.861Z,3.13
2022-12-11T08:26:14.240Z,3.20
2022-12-11T08:28:41.133Z,2.97
2022-12-11T08:31:08.492Z,2.97
2022-12-11T08:33:35.622Z,3.10
2022-12-11T08:36:02.775Z,2.93
2022-12-11T08:38:29.507Z,2.90
2022-12-11T08:40:56.128Z,3.00
2022-12-11T08:43:22.764Z,3.10
2022-12-11T08:45:49.465Z,3.00
2022-12-11T08:48:16.227Z,3.10
2022-12-11T08:50:42.898Z,4.77
2022-12-11T08:53:09.506Z,4.43
2022-12-11T08:55:36.759Z,3.93
2022-12-11T08:58:03.895Z,3.50
2022-12-11T09:00:30.506Z,3.20
2022-12-11T09:02:57.291Z,2.37
2022-12-11T09:05:24.023Z,3.87
2022-12-11T09:07:50.992Z,3.97
2022-12-11T09:10:18.040Z,4.83
2022-12-11T09:12:44.659Z,6.10
2022-12-11T09:15:11.705Z,11.13
2022-12-11T09:20:23.111Z,6.70
2022-12-11T09:22:49.860Z,5.60
2022-12-11T09:25:16.633Z,5.80
2022-12-11T09:27:43.773Z,17.17
2022-12-11T09:30:10.534Z,15.53
2022-12-11T09:32:37.289Z,8.67
2022-12-11T09:35:04.037Z,8.57
2022-12-11T09:37:30.692Z,8.40
2022-12-11T09:40:00.209Z,9.03
2022-12-11T09:42:32.133Z,7.50
2022-12-11T09:44:59.910Z,7.37
2022-12-11T09:47:30.381Z,7.20
2022-12-11T09:49:59.063Z,8.83
2022-12-11T09:52:35.696Z,10.13
2022-12-11T09:55:04.045Z,5.50
2022-12-11T09:57:31.023Z,5.87
2022-12-11T10:00:05.781Z,5.90
2022-12-11T10:02:46.281Z,9.73
2022-12-11T10:05:13.214Z,7.67
2022-12-11T10:07:46.440Z,8.00
2022-12-11T10:10:13.431Z,7.77
2022-12-11T10:12:43.062Z,6.03
2022-12-11T10:15:28.800Z,6.13
2022-12-11T10:17:59.877Z,7.03
2022-12-11T10:20:36.964Z,6.33
2022-12-11T10:23:03.883Z,6.27
2022-12-11T10:25:50.947Z,7.63
2022-12-11T10:28:19.632Z,6.37
2022-12-11T10:30:46.410Z,6.10
2022-12-11T10:33:16.118Z,6.20
2022-12-11T10:35:44.768Z,10.97
2022-12-11T10:38:15.797Z,24.50
2022-12-11T10:40:44.476Z,13.17
2022-12-11T10:43:11.581Z,9.13
2022-12-11T10:45:39.493Z,5.23
2022-12-11T10:48:06.978Z,16.40
2022-12-11T10:50:34.109Z,17.20
2022-12-11T10:53:00.723Z,8.77
2022-12-11T10:55:28.923Z,12.80
2022-12-11T10:58:05.953Z,9.60
2022-12-11T11:00:37.662Z,8.60
2022-12-11T11:03:18.049Z,5.70
2022-12-11T11:05:49.259Z,6.77
2022-12-11T11:08:28.616Z,8.53
2022-12-11T11:11:03.437Z,3.80
2022-12-11T11:16:29.932Z,7.07
2022-12-11T11:19:19.162Z,3.50
2022-12-11T11:22:02.040Z,5.10
2022-12-11T11:24:34.648Z,3.00
2022-12-11T11:27:16.762Z,3.50
2022-12-11T11:29:51.669Z,3.13
2022-12-11T11:32:24.346Z,3.40
2022-12-11T11:37:40.805Z,3.80
2022-12-11T11:40:16.953Z,2.60
2022-12-11T11:42:47.064Z,3.80
2022-12-11T11:45:18.365Z,4.63
2022-12-11T11:47:48.837Z,3.43
2022-12-11T11:50:16.811Z,3.70
2022-12-11T11:55:47.961Z,3.53
2022-12-11T11:58:16.134Z,15.90
2022-12-11T12:00:43.961Z,4.53
2022-12-11T12:03:14.483Z,4.10
2022-12-11T12:05:52.778Z,6.47
2022-12-11T12:08:22.667Z,3.40
2022-12-11T12:10:52.270Z,9.80
2022-12-11T12:13:49.031Z,3.93
2022-12-11T12:16:51.028Z,6.03
2022-12-11T12:19:12.440Z,5.93
2022-12-11T12:21:39.135Z,5.77
2022-12-11T12:24:09.151Z,6.97
2022-12-11T12:26:36.813Z,4.10
2022-12-11T12:29:12.972Z,4.00
2022-12-11T12:31:49.977Z,8.23
2022-12-11T12:34:25.931Z,5.00
2022-12-11T12:37:11.597Z,7.27
2022-12-11T12:39:40.899Z,7.73
2022-12-11T12:42:13.885Z,15.63
2022-12-11T12:45:00.889Z,14.93
2022-12-11T12:47:28.728Z,6.47
2022-12-11T12:49:56.079Z,8.80
2022-12-11T12:52:35.768Z,8.53
2022-12-11T12:55:14.405Z,7.23
2022-12-11T12:57:52.198Z,17.23
2022-12-11T13:00:31.391Z,8.23
2022-12-11T13:02:58.561Z,21.93
2022-12-11T13:05:26.544Z,7.20
2022-12-11T13:07:57.906Z,20.07
2022-12-11T13:10:26.053Z,19.43
2022-12-11T13:12:53.444Z,22.33
2022-12-11T13:15:24.072Z,12.20
2022-12-11T13:17:51.649Z,16.93
2022-12-11T13:20:19.468Z,7.20
2022-12-11T13:22:50.048Z,15.00
2022-12-11T13:25:41.747Z,11.50
2022-12-11T13:28:20.825Z,4.60
2022-12-11T13:33:48.192Z,6.03
2022-12-11T13:36:18.943Z,5.17
2022-12-11T13:38:51.958Z,5.70
2022-12-11T13:41:20.558Z,6.33
2022-12-11T13:43:47.301Z,7.80
2022-12-11T13:46:16.174Z,8.67
2022-12-11T13:48:45.904Z,3.90
2022-12-11T13:51:19.811Z,3.60
2022-12-11T13:53:48.160Z,3.50
2022-12-11T13:56:21.456Z,6.40
2022-12-11T13:58:48.635Z,5.30
2022-12-11T14:01:27.655Z,4.93
2022-12-11T14:03:59.217Z,5.27
2022-12-11T14:06:29.455Z,2.90
2022-12-11T14:08:57.374Z,3.93
2022-12-11T14:11:28.022Z,3.60
2022-12-11T14:13:55.897Z,2.47
2022-12-11T14:16:32.507Z,3.80
2022-12-11T14:19:04.313Z,4.67
2022-12-11T14:21:31.160Z,13.70
2022-12-11T14:23:58.932Z,7.00
2022-12-11T14:26:29.445Z,4.37
2022-12-11T14:28:56.079Z,8.17
2022-12-11T14:31:31.632Z,4.60
2022-12-11T14:34:00.010Z,4.00
2022-12-11T14:36:26.727Z,3.90
2022-12-11T14:38:55.305Z,3.90
2022-12-11T14:41:24.148Z,4.23
2022-12-11T14:43:53.374Z,16.47
2022-12-11T14:49:12.034Z,28.23
2022-12-11T14:51:39.888Z,34.30
2022-12-11T14:54:06.629Z,29.73
2022-12-11T14:56:33.272Z,26.43
2022-12-11T14:59:03.885Z,10.73
2022-12-11T15:01:34.298Z,17.47
2022-12-11T15:04:17.159Z,5.47
2022-12-11T15:06:44.659Z,4.00
2022-12-11T15:09:17.861Z,5.17
2022-12-11T15:11:44.628Z,3.87
2022-12-11T15:14:11.743Z,3.70
2022-12-11T15:16:38.548Z,3.97
2022-12-11T15:19:05.244Z,3.93
2022-12-11T15:21:35.522Z,3.57
2022-12-11T15:24:04.056Z,3.60
2022-12-11T15:26:34.941Z,3.87
2022-12-11T15:29:02.331Z,4.53
2022-12-11T15:31:29.890Z,4.10
2022-12-11T15:33:56.418Z,3.60
2022-12-11T15:36:26.715Z,9.93
2022-12-11T15:38:53.459Z,5.17
2022-12-11T15:41:24.946Z,3.27
2022-12-11T15:43:58.672Z,4.10
2022-12-11T15:46:26.504Z,4.60
2022-12-11T15:48:53.695Z,3.57
2022-12-11T15:51:20.738Z,2.90
2022-12-11T15:53:47.396Z,2.93
2022-12-11T15:56:15.387Z,29.90
2022-12-11T15:58:43.123Z,8.33
2022-12-11T16:01:09.846Z,12.27
2022-12-11T16:03:37.393Z,10.83
2022-12-11T16:06:04.374Z,4.20
2022-12-11T16:08:31.143Z,3.53
2022-12-11T16:10:58.341Z,3.47
2022-12-11T16:13:25.571Z,2.57
2022-12-11T16:15:53.944Z,3.20
2022-12-11T16:18:21.824Z,3.77
2022-12-11T16:20:49.089Z,3.10
2022-12-11T16:23:17.445Z,3.80
2022-12-11T16:25:44.612Z,4.00
2022-12-11T16:28:11.679Z,8.37
2022-12-11T16:30:38.531Z,5.77
2022-12-11T16:33:12.354Z,3.33
2022-12-11T16:35:43.117Z,2.73
2022-12-11T16:38:10.177Z,2.60
2022-12-11T16:40:37.285Z,2.40
2022-12-11T16:43:05.938Z,2.63
2022-12-11T16:45:33.236Z,2.30
2022-12-11T16:48:03.401Z,2.30
2022-12-11T16:50:31.053Z,2.50
2022-12-11T16:52:58.463Z,3.23
2022-12-11T16:55:25.093Z,3.20
2022-12-11T16:57:52.250Z,2.80
2022-12-11T17:00:18.946Z,5.63
2022-12-11T17:02:46.749Z,4.70
2022-12-11T17:05:14.327Z,5.60
2022-12-11T17:07:44.793Z,7.53
2022-12-11T17:10:11.659Z,9.43
2022-12-11T17:12:39.529Z,6.40
2022-12-11T17:15:06.852Z,4.53
2022-12-11T17:17:33.580Z,3.53
2022-12-11T17:20:00.520Z,2.47
2022-12-11T17:22:27.427Z,4.90
2022-12-11T17:24:54.600Z,2.73
2022-12-11T17:27:21.320Z,2.70
2022-12-11T17:29:50.196Z,3.90
2022-12-11T17:32:18.018Z,3.67
2022-12-11T17:34:45.708Z,4.60
2022-12-11T17:37:12.705Z,2.77
2022-12-11T17:39:39.787Z,2.70
2022-12-11T17:42:06.742Z,3.00
2022-12-11T17:44:33.517Z,3.37
2022-12-11T17:47:01.809Z,2.87
2022-12-11T17:49:30.658Z,3.13
2022-12-11T17:51:57.984Z,3.83
2022-12-11T17:54:24.982Z,3.10
2022-12-11T17:56:52.938Z,3.00
2022-12-11T17:59:19.740Z,2.90
2022-12-11T18:01:47.088Z,3.23
2022-12-11T18:04:15.933Z,2.50
2022-12-11T18:06:42.665Z,2.90
2022-12-11T18:09:11.402Z,3.00
2022-12-11T18:11:38.115Z,2.90
2022-12-11T18:14:05.141Z,2.80
2022-12-11T18:16:35.975Z,2.80
2022-12-11T18:19:03.108Z,3.10
2022-12-11T18:21:35.950Z,2.57
2022-12-11T18:24:02.862Z,2.60
2022-12-11T18:26:32.707Z,2.47
2022-12-11T18:29:07.985Z,2.70
2022-12-11T18:31:42.880Z,2.70
2022-12-11T18:34:18.149Z,2.40
2022-12-11T18:36:50.917Z,2.70
2022-12-11T18:39:23.183Z,3.03
2022-12-11T18:42:24.358Z,2.87
2022-12-11T18:44:48.836Z,4.67
2022-12-11T18:47:15.714Z,2.83
2022-12-11T18:49:43.770Z,3.10
2022-12-11T18:52:22.649Z,3.07
2022-12-11T18:54:52.540Z,2.90
2022-12-11T18:57:19.704Z,2.57
2022-12-11T18:59:47.550Z,2.80
2022-12-11T19:02:14.533Z,3.10
2022-12-11T19:04:41.507Z,2.90
2022-12-11T19:07:09.672Z,3.30
2022-12-11T19:09:38.237Z,3.23
2022-12-11T19:12:07.083Z,2.50
2022-12-11T19:14:33.837Z,2.57
2022-12-11T19:17:03.327Z,2.80
2022-12-11T19:19:30.706Z,2.63
2022-12-11T19:21:57.389Z,2.43
2022-12-11T19:24:24.182Z,2.70
2022-12-11T19:26:50.906Z,9.03
2022-12-11T19:29:27.809Z,23.93
2022-12-11T19:31:55.902Z,16.93
2022-12-11T19:34:24.054Z,4.87
2022-12-11T19:36:51.856Z,4.87
2022-12-11T19:39:19.760Z,31.17
2022-12-11T19:41:46.556Z,4.07
2022-12-11T19:44:13.118Z,2.67
2022-12-11T19:46:40.448Z,3.27
2022-12-11T19:49:07.248Z,3.60
2022-12-11T19:51:40.069Z,3.03
2022-12-11T19:54:10.093Z,2.23
2022-12-11T19:56:37.675Z,2.83
2022-12-11T19:59:06.591Z,2.67
2022-12-11T20:01:33.703Z,3.60
2022-12-11T20:04:05.417Z,4.00
2022-12-11T20:06:32.954Z,2.70
2022-12-11T20:08:59.660Z,2.47
2022-12-11T20:11:26.613Z,2.10
2022-12-11T20:13:55.605Z,2.03
2022-12-11T20:16:53.342Z,2.50
2022-12-11T20:19:13.178Z,2.23
2022-12-11T20:21:42.424Z,2.10
2022-12-11T20:24:11.975Z,2.50
2022-12-11T20:26:40.247Z,3.57
2022-12-11T20:29:08.736Z,2.10
2022-12-11T20:31:38.935Z,2.37
2022-12-11T20:34:08.189Z,2.53
2022-12-11T20:36:36.819Z,2.40
2022-12-11T20:39:03.785Z,2.20
2022-12-11T20:41:30.676Z,2.10
2022-12-11T20:43:57.545Z,2.30
2022-12-11T20:46:25.272Z,2.10
2022-12-11T20:48:52.369Z,2.03
2022-12-11T20:51:25.510Z,1.83
2022-12-11T20:53:59.511Z,2.00
2022-12-11T20:56:29.932Z,1.93
2022-12-11T20:58:57.266Z,4.77
2022-12-11T21:01:24.270Z,2.83
2022-12-11T21:03:52.685Z,3.00
2022-12-11T21:06:26.843Z,2.00
2022-12-11T21:08:53.839Z,3.50
2022-12-11T21:11:27.843Z,2.50
2022-12-11T21:13:54.667Z,4.07
2022-12-11T21:16:21.735Z,2.73
2022-12-11T21:18:48.573Z,1.93
2022-12-11T21:21:15.215Z,1.80
2022-12-11T21:23:41.955Z,1.40
2022-12-11T21:26:08.672Z,2.10
2022-12-11T21:28:35.862Z,3.00
2022-12-11T21:31:04.896Z,2.17
2022-12-11T21:33:31.654Z,5.33
2022-12-11T21:35:58.577Z,1.90
2022-12-11T21:38:26.496Z,1.60
2022-12-11T21:40:53.097Z,1.47
2022-12-11T21:43:20.897Z,2.10
2022-12-11T21:46:03.121Z,2.40
2022-12-11T21:48:30.279Z,1.53
2022-12-11T21:51:04.231Z,1.50
2022-12-11T21:53:31.007Z,2.00
2022-12-11T21:55:57.777Z,2.50
2022-12-11T21:58:24.339Z,1.97
2022-12-11T22:00:50.990Z,1.77
2022-12-11T22:03:17.707Z,2.57
2022-12-11T22:05:44.356Z,1.87
2022-12-11T22:08:11.051Z,2.23
2022-12-11T22:10:38.284Z,1.57
2022-12-11T22:13:05.140Z,2.00
2022-12-11T22:15:31.895Z,1.70
2022-12-11T22:17:58.509Z,1.50
2022-12-11T22:20:25.133Z,1.57
2022-12-11T22:22:51.764Z,1.50
2022-12-11T22:25:18.586Z,1.50
2022-12-11T22:27:45.292Z,1.40
2022-12-11T22:30:12.653Z,1.27
2022-12-11T22:32:39.352Z,1.40
2022-12-11T22:35:06.170Z,1.20
2022-12-11T22:37:33.420Z,1.27
2022-12-11T22:40:00.025Z,1.53
2022-12-11T22:42:26.960Z,1.70
2022-12-11T22:44:53.607Z,1.40
2022-12-11T22:47:20.642Z,1.20
2022-12-11T22:49:47.807Z,1.50
2022-12-11T22:52:14.543Z,1.10
2022-12-11T22:54:41.276Z,1.37
2022-12-11T22:57:08.360Z,1.27
2022-12-11T22:59:35.389Z,1.40
2022-12-11T23:02:02.112Z,1.27
2022-12-11T23:04:28.612Z,1.40
2022-12-11T23:06:55.388Z,1.10
2022-12-11T23:09:21.957Z,1.30
2022-12-11T23:11:48.529Z,0.97
2022-12-11T23:14:16.017Z,1.10
2022-12-11T23:16:42.672Z,1.20
2022-12-11T23:19:09.299Z,1.40
2022-12-11T23:21:35.833Z,1.00
2022-12-11T23:24:02.405Z,1.00
2022-12-11T23:26:29.011Z,1.20
2022-12-11T23:28:56.036Z,1.10
2022-12-11T23:31:23.004Z,1.37
2022-12-11T23:33:49.684Z,1.23
2022-12-11T23:36:16.491Z,1.13
2022-12-11T23:38:43.005Z,1.00
2022-12-11T23:41:09.900Z,1.23
2022-12-11T23:43:36.536Z,1.20
2022-12-11T23:46:04.107Z,1.40
2022-12-11T23:48:31.306Z,1.13
2022-12-11T23:51:01.074Z,1.37
2022-12-11T23:53:28.208Z,1.07
2022-12-11T23:55:54.755Z,1.07
2022-12-11T23:58:21.776Z,1.20
